sensor_id;sensor_type;location;lat;lon;timestamp;temperature;humidity
6724;DHT22;3399;52.530;13.304;2024-02-14T00:02:11;4.70;99.90
6724;DHT22;3399;52.530;13.304;2024-02-14T00:04:37;4.70;99.90
6724;DHT22;3399;52.530;13.304;2024-02-14T00:07:04;4.80;99.90
6724;DHT22;3399;52.530;13.304;2024-02-14T00:09:30;4.80;99.90
6724;DHT22;3399;52.530;13.304;2024-02-14T00:11:56;4.80;99.90
6724;DHT22;3399;52.530;13.304;2024-02-14T00:14:21;4.80;99.90
6724;DHT22;3399;52.530;13.304;2024-02-14T00:16:47;4.80;99.90
6724;DHT22;3399;52.530;13.304;2024-02-14T00:19:13;4.70;99.90
6724;DHT22;3399;52.530;13.304;2024-02-14T00:21:39;4.80;99.90
6724;DHT22;3399;52.530;13.304;2024-02-14T00:24:05;4.80;99.90
6724;DHT22;3399;52.530;13.304;2024-02-14T00:26:31;4.80;99.90
6724;DHT22;3399;52.530;13.304;2024-02-14T00:28:56;4.80;99.90
6724;DHT22;3399;52.530;13.304;2024-02-14T00:31:22;4.90;99.90
6724;DHT22;3399;52.530;13.304;2024-02-14T00:33:48;4.80;99.90
6724;DHT22;3399;52.530;13.304;2024-02-14T00:36:14;4.70;99.90
6724;DHT22;3399;52.530;13.304;2024-02-14T00:38:39;4.80;99.90
6724;DHT22;3399;52.530;13.304;2024-02-14T00:41:05;4.90;99.90
6724;DHT22;3399;52.530;13.304;2024-02-14T00:43:31;4.90;99.90
6724;DHT22;3399;52.530;13.304;2024-02-14T00:45:56;4.90;99.90
6724;DHT22;3399;52.530;13.304;2024-02-14T00:48:22;4.90;99.90
6724;DHT22;3399;52.530;13.304;2024-02-14T00:50:48;4.90;99.90
6724;DHT22;3399;52.530;13.304;2024-02-14T00:53:14;5.00;99.90
6724;DHT22;3399;52.530;13.304;2024-02-14T00:55:39;4.90;99.90
6724;DHT22;3399;52.530;13.304;2024-02-14T00:58:05;4.90;99.90
6724;DHT22;3399;52.530;13.304;2024-02-14T01:00:30;4.80;99.90
6724;DHT22;3399;52.530;13.304;2024-02-14T01:02:57;4.90;99.90
6724;DHT22;3399;52.530;13.304;2024-02-14T01:05:23;4.90;99.90
6724;DHT22;3399;52.530;13.304;2024-02-14T01:07:48;4.90;99.90
6724;DHT22;3399;52.530;13.304;2024-02-14T01:10:14;4.90;99.90
6724;DHT22;3399;52.530;13.304;2024-02-14T01:12:39;4.90;99.90
6724;DHT22;3399;52.530;13.304;2024-02-14T01:15:06;4.90;99.90
6724;DHT22;3399;52.530;13.304;2024-02-14T01:17:31;4.90;99.90
6724;DHT22;3399;52.530;13.304;2024-02-14T01:19:57;4.90;99.90
6724;DHT22;3399;52.530;13.304;2024-02-14T01:22:23;4.80;99.90
6724;DHT22;3399;52.530;13.304;2024-02-14T01:24:49;4.90;99.90
6724;DHT22;3399;52.530;13.304;2024-02-14T01:27:15;4.90;99.90
6724;DHT22;3399;52.530;13.304;2024-02-14T01:29:42;4.90;99.90
6724;DHT22;3399;52.530;13.304;2024-02-14T01:32:08;4.90;99.90
6724;DHT22;3399;52.530;13.304;2024-02-14T01:34:35;5.00;99.90
6724;DHT22;3399;52.530;13.304;2024-02-14T01:37:01;5.00;99.90
6724;DHT22;3399;52.530;13.304;2024-02-14T01:39:26;5.10;99.90
6724;DHT22;3399;52.530;13.304;2024-02-14T01:41:52;5.10;99.90
6724;DHT22;3399;52.530;13.304;2024-02-14T01:44:18;5.10;99.90
6724;DHT22;3399;52.530;13.304;2024-02-14T01:46:46;5.10;99.90
6724;DHT22;3399;52.530;13.304;2024-02-14T01:49:12;5.00;99.90
6724;DHT22;3399;52.530;13.304;2024-02-14T01:51:38;5.00;99.90
6724;DHT22;3399;52.530;13.304;2024-02-14T01:54:05;5.00;99.90
6724;DHT22;3399;52.530;13.304;2024-02-14T01:56:31;5.10;99.90
6724;DHT22;3399;52.530;13.304;2024-02-14T01:58:58;5.10;99.90
6724;DHT22;3399;52.530;13.304;2024-02-14T02:01:24;5.10;99.90
6724;DHT22;3399;52.530;13.304;2024-02-14T02:03:50;5.10;99.90
6724;DHT22;3399;52.530;13.304;2024-02-14T02:06:15;5.10;99.90
6724;DHT22;3399;52.530;13.304;2024-02-14T02:08:43;5.10;99.90
6724;DHT22;3399;52.530;13.304;2024-02-14T02:11:09;5.20;99.90
6724;DHT22;3399;52.530;13.304;2024-02-14T02:13:35;5.10;99.90
6724;DHT22;3399;52.530;13.304;2024-02-14T02:16:00;5.10;99.90
6724;DHT22;3399;52.530;13.304;2024-02-14T02:18:30;5.00;99.90
6724;DHT22;3399;52.530;13.304;2024-02-14T02:20:56;5.00;99.90
6724;DHT22;3399;52.530;13.304;2024-02-14T02:23:22;5.00;99.90
6724;DHT22;3399;52.530;13.304;2024-02-14T02:25:48;5.00;99.90
6724;DHT22;3399;52.530;13.304;2024-02-14T02:28:13;5.00;99.90
6724;DHT22;3399;52.530;13.304;2024-02-14T02:30:40;5.10;99.90
6724;DHT22;3399;52.530;13.304;2024-02-14T02:33:06;5.10;99.90
6724;DHT22;3399;52.530;13.304;2024-02-14T02:35:33;5.10;99.90
6724;DHT22;3399;52.530;13.304;2024-02-14T02:37:59;5.10;99.90
6724;DHT22;3399;52.530;13.304;2024-02-14T02:40:25;5.10;99.90
6724;DHT22;3399;52.530;13.304;2024-02-14T02:42:53;5.10;99.90
6724;DHT22;3399;52.530;13.304;2024-02-14T02:45:18;5.00;99.90
6724;DHT22;3399;52.530;13.304;2024-02-14T02:47:44;4.90;99.90
6724;DHT22;3399;52.530;13.304;2024-02-14T02:50:10;4.90;99.90
6724;DHT22;3399;52.530;13.304;2024-02-14T02:52:35;4.90;99.90
6724;DHT22;3399;52.530;13.304;2024-02-14T02:55:01;4.90;99.90
6724;DHT22;3399;52.530;13.304;2024-02-14T02:57:28;4.90;99.90
6724;DHT22;3399;52.530;13.304;2024-02-14T02:59:54;4.90;99.90
6724;DHT22;3399;52.530;13.304;2024-02-14T03:02:20;4.90;99.90
6724;DHT22;3399;52.530;13.304;2024-02-14T03:04:46;4.90;99.90
6724;DHT22;3399;52.530;13.304;2024-02-14T03:07:12;4.90;99.90
6724;DHT22;3399;52.530;13.304;2024-02-14T03:09:38;4.90;99.90
6724;DHT22;3399;52.530;13.304;2024-02-14T03:12:04;4.80;99.90
6724;DHT22;3399;52.530;13.304;2024-02-14T03:14:33;4.90;99.90
6724;DHT22;3399;52.530;13.304;2024-02-14T03:17:02;4.80;99.90
6724;DHT22;3399;52.530;13.304;2024-02-14T03:19:28;4.80;99.90
6724;DHT22;3399;52.530;13.304;2024-02-14T03:21:55;5.00;99.90
6724;DHT22;3399;52.530;13.304;2024-02-14T03:24:21;4.90;99.90
6724;DHT22;3399;52.530;13.304;2024-02-14T03:26:46;4.90;99.90
6724;DHT22;3399;52.530;13.304;2024-02-14T03:29:12;5.00;99.90
6724;DHT22;3399;52.530;13.304;2024-02-14T03:31:38;5.00;99.90
6724;DHT22;3399;52.530;13.304;2024-02-14T03:34:04;5.00;99.90
6724;DHT22;3399;52.530;13.304;2024-02-14T03:36:30;5.00;99.90
6724;DHT22;3399;52.530;13.304;2024-02-14T03:38:58;5.00;99.90
6724;DHT22;3399;52.530;13.304;2024-02-14T03:41:24;5.00;99.90
6724;DHT22;3399;52.530;13.304;2024-02-14T03:43:49;5.00;99.90
6724;DHT22;3399;52.530;13.304;2024-02-14T03:46:16;5.00;99.90
6724;DHT22;3399;52.530;13.304;2024-02-14T03:48:43;5.00;99.90
6724;DHT22;3399;52.530;13.304;2024-02-14T03:51:09;5.10;99.90
6724;DHT22;3399;52.530;13.304;2024-02-14T03:53:34;5.10;99.90
6724;DHT22;3399;52.530;13.304;2024-02-14T03:56:01;5.00;99.90
6724;DHT22;3399;52.530;13.304;2024-02-14T03:58:27;5.10;99.90
6724;DHT22;3399;52.530;13.304;2024-02-14T04:00:52;5.00;99.90
6724;DHT22;3399;52.530;13.304;2024-02-14T04:03:18;5.00;99.90
6724;DHT22;3399;52.530;13.304;2024-02-14T04:05:44;4.80;99.90
6724;DHT22;3399;52.530;13.304;2024-02-14T04:08:11;4.90;99.90
6724;DHT22;3399;52.530;13.304;2024-02-14T04:10:37;4.90;99.90
6724;DHT22;3399;52.530;13.304;2024-02-14T04:13:05;5.00;99.90
6724;DHT22;3399;52.530;13.304;2024-02-14T04:15:32;5.00;99.90
6724;DHT22;3399;52.530;13.304;2024-02-14T04:17:57;5.00;99.90
6724;DHT22;3399;52.530;13.304;2024-02-14T04:20:25;4.90;99.90
6724;DHT22;3399;52.530;13.304;2024-02-14T04:22:50;4.90;99.90
6724;DHT22;3399;52.530;13.304;2024-02-14T04:25:16;4.80;99.90
6724;DHT22;3399;52.530;13.304;2024-02-14T04:27:41;4.80;99.90
6724;DHT22;3399;52.530;13.304;2024-02-14T04:30:07;4.80;99.90
6724;DHT22;3399;52.530;13.304;2024-02-14T04:32:33;4.90;99.90
6724;DHT22;3399;52.530;13.304;2024-02-14T04:34:58;4.90;99.90
6724;DHT22;3399;52.530;13.304;2024-02-14T04:37:24;4.90;99.90
6724;DHT22;3399;52.530;13.304;2024-02-14T04:39:49;4.90;99.90
6724;DHT22;3399;52.530;13.304;2024-02-14T04:42:15;5.00;99.90
6724;DHT22;3399;52.530;13.304;2024-02-14T04:44:41;5.00;99.90
6724;DHT22;3399;52.530;13.304;2024-02-14T04:47:06;5.00;99.90
6724;DHT22;3399;52.530;13.304;2024-02-14T04:49:35;5.00;99.90
6724;DHT22;3399;52.530;13.304;2024-02-14T04:52:00;5.00;99.90
6724;DHT22;3399;52.530;13.304;2024-02-14T04:54:26;5.00;99.90
6724;DHT22;3399;52.530;13.304;2024-02-14T04:56:52;5.00;99.90
6724;DHT22;3399;52.530;13.304;2024-02-14T04:59:18;5.10;99.90
6724;DHT22;3399;52.530;13.304;2024-02-14T05:01:44;5.10;99.90
6724;DHT22;3399;52.530;13.304;2024-02-14T05:04:10;5.10;99.90
6724;DHT22;3399;52.530;13.304;2024-02-14T05:06:38;5.10;99.90
6724;DHT22;3399;52.530;13.304;2024-02-14T05:09:04;5.20;99.90
6724;DHT22;3399;52.530;13.304;2024-02-14T05:11:29;5.10;99.90
6724;DHT22;3399;52.530;13.304;2024-02-14T05:13:55;5.00;99.90
6724;DHT22;3399;52.530;13.304;2024-02-14T05:16:20;5.00;99.90
6724;DHT22;3399;52.530;13.304;2024-02-14T05:18:46;5.00;99.90
6724;DHT22;3399;52.530;13.304;2024-02-14T05:21:11;5.00;99.90
6724;DHT22;3399;52.530;13.304;2024-02-14T05:23:37;5.00;99.90
6724;DHT22;3399;52.530;13.304;2024-02-14T05:26:03;5.10;99.90
6724;DHT22;3399;52.530;13.304;2024-02-14T05:28:29;5.10;99.90
6724;DHT22;3399;52.530;13.304;2024-02-14T05:30:55;5.10;99.90
6724;DHT22;3399;52.530;13.304;2024-02-14T05:33:21;5.10;99.90
6724;DHT22;3399;52.530;13.304;2024-02-14T05:35:51;5.10;99.90
6724;DHT22;3399;52.530;13.304;2024-02-14T05:38:17;5.10;99.90
6724;DHT22;3399;52.530;13.304;2024-02-14T05:40:48;5.10;99.90
6724;DHT22;3399;52.530;13.304;2024-02-14T05:43:14;5.10;99.90
6724;DHT22;3399;52.530;13.304;2024-02-14T05:45:41;5.10;99.90
6724;DHT22;3399;52.530;13.304;2024-02-14T05:48:07;5.10;99.90
6724;DHT22;3399;52.530;13.304;2024-02-14T05:50:33;5.10;99.90
6724;DHT22;3399;52.530;13.304;2024-02-14T05:52:59;5.10;99.90
6724;DHT22;3399;52.530;13.304;2024-02-14T05:55:25;5.10;99.90
6724;DHT22;3399;52.530;13.304;2024-02-14T05:57:51;5.20;99.90
6724;DHT22;3399;52.530;13.304;2024-02-14T06:00:18;5.20;99.90
6724;DHT22;3399;52.530;13.304;2024-02-14T06:02:44;5.20;99.90
6724;DHT22;3399;52.530;13.304;2024-02-14T06:05:10;5.20;99.90
6724;DHT22;3399;52.530;13.304;2024-02-14T06:07:37;5.20;99.90
6724;DHT22;3399;52.530;13.304;2024-02-14T06:10:02;5.10;99.90
6724;DHT22;3399;52.530;13.304;2024-02-14T06:12:28;5.20;99.90
6724;DHT22;3399;52.530;13.304;2024-02-14T06:14:55;5.20;99.90
6724;DHT22;3399;52.530;13.304;2024-02-14T06:17:20;5.20;99.90
6724;DHT22;3399;52.530;13.304;2024-02-14T06:19:46;5.20;99.90
6724;DHT22;3399;52.530;13.304;2024-02-14T06:22:11;5.30;99.90
6724;DHT22;3399;52.530;13.304;2024-02-14T06:24:37;5.30;99.90
6724;DHT22;3399;52.530;13.304;2024-02-14T06:27:02;5.30;99.90
6724;DHT22;3399;52.530;13.304;2024-02-14T06:29:28;5.30;99.90
6724;DHT22;3399;52.530;13.304;2024-02-14T06:31:54;5.30;99.90
6724;DHT22;3399;52.530;13.304;2024-02-14T06:34:19;5.30;99.90
6724;DHT22;3399;52.530;13.304;2024-02-14T06:36:46;5.30;99.90
6724;DHT22;3399;52.530;13.304;2024-02-14T06:39:12;5.40;99.90
6724;DHT22;3399;52.530;13.304;2024-02-14T06:41:38;5.40;99.90
6724;DHT22;3399;52.530;13.304;2024-02-14T06:44:04;5.40;99.90
6724;DHT22;3399;52.530;13.304;2024-02-14T06:46:30;5.40;99.90
6724;DHT22;3399;52.530;13.304;2024-02-14T06:48:56;5.50;99.90
6724;DHT22;3399;52.530;13.304;2024-02-14T06:51:22;5.50;99.90
6724;DHT22;3399;52.530;13.304;2024-02-14T06:53:48;5.50;99.90
6724;DHT22;3399;52.530;13.304;2024-02-14T06:56:14;5.50;99.90
6724;DHT22;3399;52.530;13.304;2024-02-14T06:58:40;5.40;99.90
6724;DHT22;3399;52.530;13.304;2024-02-14T07:01:05;5.40;99.90
6724;DHT22;3399;52.530;13.304;2024-02-14T07:03:30;5.40;99.90
6724;DHT22;3399;52.530;13.304;2024-02-14T07:05:57;5.40;99.90
6724;DHT22;3399;52.530;13.304;2024-02-14T07:08:22;5.30;99.90
6724;DHT22;3399;52.530;13.304;2024-02-14T07:10:48;5.40;99.90
6724;DHT22;3399;52.530;13.304;2024-02-14T07:13:14;5.40;99.90
6724;DHT22;3399;52.530;13.304;2024-02-14T07:15:39;5.50;99.90
6724;DHT22;3399;52.530;13.304;2024-02-14T07:18:05;5.50;99.90
6724;DHT22;3399;52.530;13.304;2024-02-14T07:20:33;5.60;99.90
6724;DHT22;3399;52.530;13.304;2024-02-14T07:22:59;5.70;99.90
6724;DHT22;3399;52.530;13.304;2024-02-14T07:25:24;5.70;99.90
6724;DHT22;3399;52.530;13.304;2024-02-14T07:27:50;5.60;99.90
6724;DHT22;3399;52.530;13.304;2024-02-14T07:30:16;5.60;99.90
6724;DHT22;3399;52.530;13.304;2024-02-14T07:32:43;5.70;99.90
6724;DHT22;3399;52.530;13.304;2024-02-14T07:35:09;5.80;99.90
6724;DHT22;3399;52.530;13.304;2024-02-14T07:37:36;5.80;99.90
6724;DHT22;3399;52.530;13.304;2024-02-14T07:40:03;5.90;99.90
6724;DHT22;3399;52.530;13.304;2024-02-14T07:42:28;5.90;99.90
6724;DHT22;3399;52.530;13.304;2024-02-14T07:44:54;6.00;99.90
6724;DHT22;3399;52.530;13.304;2024-02-14T07:47:21;5.90;99.90
6724;DHT22;3399;52.530;13.304;2024-02-14T07:49:47;6.00;99.90
6724;DHT22;3399;52.530;13.304;2024-02-14T07:52:15;6.10;99.90
6724;DHT22;3399;52.530;13.304;2024-02-14T07:54:41;6.10;99.90
6724;DHT22;3399;52.530;13.304;2024-02-14T07:57:06;6.20;99.90
6724;DHT22;3399;52.530;13.304;2024-02-14T07:59:32;6.20;99.90
6724;DHT22;3399;52.530;13.304;2024-02-14T08:02:00;6.30;99.90
6724;DHT22;3399;52.530;13.304;2024-02-14T08:04:26;6.30;99.90
6724;DHT22;3399;52.530;13.304;2024-02-14T08:06:51;6.30;99.90
6724;DHT22;3399;52.530;13.304;2024-02-14T08:09:17;6.40;99.90
6724;DHT22;3399;52.530;13.304;2024-02-14T08:11:42;6.40;99.90
6724;DHT22;3399;52.530;13.304;2024-02-14T08:14:08;6.40;99.90
6724;DHT22;3399;52.530;13.304;2024-02-14T08:16:33;6.40;99.90
6724;DHT22;3399;52.530;13.304;2024-02-14T08:18:59;6.40;99.90
6724;DHT22;3399;52.530;13.304;2024-02-14T08:21:25;6.40;99.90
6724;DHT22;3399;52.530;13.304;2024-02-14T08:23:52;6.40;99.90
6724;DHT22;3399;52.530;13.304;2024-02-14T08:26:18;6.40;99.90
6724;DHT22;3399;52.530;13.304;2024-02-14T08:28:43;6.40;99.90
6724;DHT22;3399;52.530;13.304;2024-02-14T08:31:12;6.50;99.90
6724;DHT22;3399;52.530;13.304;2024-02-14T08:33:37;6.50;99.90
6724;DHT22;3399;52.530;13.304;2024-02-14T08:36:04;6.50;99.90
6724;DHT22;3399;52.530;13.304;2024-02-14T08:38:29;6.60;99.90
6724;DHT22;3399;52.530;13.304;2024-02-14T08:40:55;6.60;99.90
6724;DHT22;3399;52.530;13.304;2024-02-14T08:43:22;6.60;99.90
6724;DHT22;3399;52.530;13.304;2024-02-14T08:45:47;6.70;99.90
6724;DHT22;3399;52.530;13.304;2024-02-14T08:48:13;6.70;99.90
6724;DHT22;3399;52.530;13.304;2024-02-14T08:50:38;6.80;99.90
6724;DHT22;3399;52.530;13.304;2024-02-14T08:53:05;6.80;99.90
6724;DHT22;3399;52.530;13.304;2024-02-14T08:55:30;6.90;99.90
6724;DHT22;3399;52.530;13.304;2024-02-14T08:57:58;6.90;99.90
6724;DHT22;3399;52.530;13.304;2024-02-14T09:00:24;6.90;99.90
6724;DHT22;3399;52.530;13.304;2024-02-14T09:02:49;6.90;99.90
6724;DHT22;3399;52.530;13.304;2024-02-14T09:05:15;7.00;99.90
6724;DHT22;3399;52.530;13.304;2024-02-14T09:07:42;7.00;99.90
6724;DHT22;3399;52.530;13.304;2024-02-14T09:10:08;7.00;99.90
6724;DHT22;3399;52.530;13.304;2024-02-14T09:12:33;7.00;99.90
6724;DHT22;3399;52.530;13.304;2024-02-14T09:14:59;6.90;99.90
6724;DHT22;3399;52.530;13.304;2024-02-14T09:17:24;6.90;99.90
6724;DHT22;3399;52.530;13.304;2024-02-14T09:19:50;7.00;99.90
6724;DHT22;3399;52.530;13.304;2024-02-14T09:22:16;7.10;99.90
6724;DHT22;3399;52.530;13.304;2024-02-14T09:24:47;7.10;99.90
6724;DHT22;3399;52.530;13.304;2024-02-14T09:27:13;7.00;99.90
6724;DHT22;3399;52.530;13.304;2024-02-14T09:29:39;7.00;99.90
6724;DHT22;3399;52.530;13.304;2024-02-14T09:32:05;6.90;99.90
6724;DHT22;3399;52.530;13.304;2024-02-14T09:34:30;6.90;99.90
6724;DHT22;3399;52.530;13.304;2024-02-14T09:36:56;6.80;99.90
6724;DHT22;3399;52.530;13.304;2024-02-14T09:39:24;6.80;99.90
6724;DHT22;3399;52.530;13.304;2024-02-14T09:41:52;6.70;99.90
6724;DHT22;3399;52.530;13.304;2024-02-14T09:44:20;6.80;99.90
6724;DHT22;3399;52.530;13.304;2024-02-14T09:46:49;6.80;99.90
6724;DHT22;3399;52.530;13.304;2024-02-14T09:49:16;6.80;99.90
6724;DHT22;3399;52.530;13.304;2024-02-14T09:51:46;6.80;99.90
6724;DHT22;3399;52.530;13.304;2024-02-14T09:54:11;6.80;99.90
6724;DHT22;3399;52.530;13.304;2024-02-14T09:56:37;6.90;99.90
6724;DHT22;3399;52.530;13.304;2024-02-14T09:59:03;6.90;99.90
6724;DHT22;3399;52.530;13.304;2024-02-14T10:01:30;6.90;99.90
6724;DHT22;3399;52.530;13.304;2024-02-14T10:04:03;6.90;99.90
6724;DHT22;3399;52.530;13.304;2024-02-14T10:06:33;6.80;99.90
6724;DHT22;3399;52.530;13.304;2024-02-14T10:09:02;6.80;99.90
6724;DHT22;3399;52.530;13.304;2024-02-14T10:11:27;6.80;99.90
6724;DHT22;3399;52.530;13.304;2024-02-14T10:13:53;6.90;99.90
6724;DHT22;3399;52.530;13.304;2024-02-14T10:16:22;6.80;99.90
6724;DHT22;3399;52.530;13.304;2024-02-14T10:18:48;6.80;99.90
6724;DHT22;3399;52.530;13.304;2024-02-14T10:21:18;6.80;99.90
6724;DHT22;3399;52.530;13.304;2024-02-14T10:23:45;6.90;99.90
6724;DHT22;3399;52.530;13.304;2024-02-14T10:26:13;6.90;99.90
6724;DHT22;3399;52.530;13.304;2024-02-14T10:28:45;7.00;99.90
6724;DHT22;3399;52.530;13.304;2024-02-14T10:31:11;7.00;99.90
6724;DHT22;3399;52.530;13.304;2024-02-14T10:33:36;7.10;99.90
6724;DHT22;3399;52.530;13.304;2024-02-14T10:36:02;7.10;99.90
6724;DHT22;3399;52.530;13.304;2024-02-14T10:38:32;7.10;99.90
6724;DHT22;3399;52.530;13.304;2024-02-14T10:41:01;7.10;99.90
6724;DHT22;3399;52.530;13.304;2024-02-14T10:43:28;7.20;99.90
6724;DHT22;3399;52.530;13.304;2024-02-14T10:45:59;7.20;99.90
6724;DHT22;3399;52.530;13.304;2024-02-14T10:48:28;7.20;99.90
6724;DHT22;3399;52.530;13.304;2024-02-14T10:50:59;7.30;99.90
6724;DHT22;3399;52.530;13.304;2024-02-14T10:53:29;7.40;99.90
6724;DHT22;3399;52.530;13.304;2024-02-14T10:55:58;7.40;99.90
6724;DHT22;3399;52.530;13.304;2024-02-14T10:58:24;7.40;99.90
6724;DHT22;3399;52.530;13.304;2024-02-14T11:00:51;7.50;99.90
6724;DHT22;3399;52.530;13.304;2024-02-14T11:03:17;7.60;99.90
6724;DHT22;3399;52.530;13.304;2024-02-14T11:05:46;7.70;99.90
6724;DHT22;3399;52.530;13.304;2024-02-14T11:08:19;7.70;99.90
6724;DHT22;3399;52.530;13.304;2024-02-14T11:10:54;7.80;99.90
6724;DHT22;3399;52.530;13.304;2024-02-14T11:13:20;7.80;99.90
6724;DHT22;3399;52.530;13.304;2024-02-14T11:15:47;7.80;99.90
6724;DHT22;3399;52.530;13.304;2024-02-14T11:18:12;7.70;99.90
6724;DHT22;3399;52.530;13.304;2024-02-14T11:20:38;7.70;99.90
6724;DHT22;3399;52.530;13.304;2024-02-14T11:23:06;7.70;99.90
6724;DHT22;3399;52.530;13.304;2024-02-14T11:25:36;7.70;99.90
6724;DHT22;3399;52.530;13.304;2024-02-14T11:30:45;7.80;99.90
6724;DHT22;3399;52.530;13.304;2024-02-14T11:33:18;7.80;99.90
6724;DHT22;3399;52.530;13.304;2024-02-14T11:35:47;7.90;99.90
6724;DHT22;3399;52.530;13.304;2024-02-14T11:38:13;7.90;99.90
6724;DHT22;3399;52.530;13.304;2024-02-14T11:40:39;7.90;99.90
6724;DHT22;3399;52.530;13.304;2024-02-14T11:43:15;7.90;99.90
6724;DHT22;3399;52.530;13.304;2024-02-14T11:45:42;8.00;99.90
6724;DHT22;3399;52.530;13.304;2024-02-14T11:48:11;8.00;99.90
6724;DHT22;3399;52.530;13.304;2024-02-14T11:50:39;8.10;99.90
6724;DHT22;3399;52.530;13.304;2024-02-14T11:53:06;8.10;99.90
6724;DHT22;3399;52.530;13.304;2024-02-14T11:55:34;8.10;99.90
6724;DHT22;3399;52.530;13.304;2024-02-14T11:58:02;8.10;99.90
6724;DHT22;3399;52.530;13.304;2024-02-14T12:00:27;8.20;99.90
6724;DHT22;3399;52.530;13.304;2024-02-14T12:02:53;8.20;99.90
6724;DHT22;3399;52.530;13.304;2024-02-14T12:05:19;8.20;99.90
6724;DHT22;3399;52.530;13.304;2024-02-14T12:07:45;8.10;99.90
6724;DHT22;3399;52.530;13.304;2024-02-14T12:10:11;8.20;99.90
6724;DHT22;3399;52.530;13.304;2024-02-14T12:12:38;8.20;99.90
6724;DHT22;3399;52.530;13.304;2024-02-14T12:15:03;8.20;99.90
6724;DHT22;3399;52.530;13.304;2024-02-14T12:17:31;8.20;99.90
6724;DHT22;3399;52.530;13.304;2024-02-14T12:20:10;8.10;99.90
6724;DHT22;3399;52.530;13.304;2024-02-14T12:22:37;8.20;99.90
6724;DHT22;3399;52.530;13.304;2024-02-14T12:25:03;8.30;99.90
6724;DHT22;3399;52.530;13.304;2024-02-14T12:27:32;8.30;99.90
6724;DHT22;3399;52.530;13.304;2024-02-14T12:29:58;8.20;99.90
6724;DHT22;3399;52.530;13.304;2024-02-14T12:32:24;8.30;99.90
6724;DHT22;3399;52.530;13.304;2024-02-14T12:34:49;8.50;99.90
6724;DHT22;3399;52.530;13.304;2024-02-14T12:37:14;8.60;99.90
6724;DHT22;3399;52.530;13.304;2024-02-14T12:39:41;8.50;99.90
6724;DHT22;3399;52.530;13.304;2024-02-14T12:42:06;8.60;99.90
6724;DHT22;3399;52.530;13.304;2024-02-14T12:44:32;8.70;99.90
6724;DHT22;3399;52.530;13.304;2024-02-14T12:46:57;8.70;99.90
6724;DHT22;3399;52.530;13.304;2024-02-14T12:49:23;8.70;99.90
6724;DHT22;3399;52.530;13.304;2024-02-14T12:51:51;8.70;99.90
6724;DHT22;3399;52.530;13.304;2024-02-14T12:54:17;8.80;99.90
6724;DHT22;3399;52.530;13.304;2024-02-14T12:56:42;8.70;99.90
6724;DHT22;3399;52.530;13.304;2024-02-14T12:59:08;8.80;99.90
6724;DHT22;3399;52.530;13.304;2024-02-14T13:01:40;8.80;99.90
6724;DHT22;3399;52.530;13.304;2024-02-14T13:04:06;8.80;99.90
6724;DHT22;3399;52.530;13.304;2024-02-14T13:06:33;8.80;99.90
6724;DHT22;3399;52.530;13.304;2024-02-14T13:08:59;8.70;99.90
6724;DHT22;3399;52.530;13.304;2024-02-14T13:11:25;8.80;99.90
6724;DHT22;3399;52.530;13.304;2024-02-14T13:13:51;8.90;99.90
6724;DHT22;3399;52.530;13.304;2024-02-14T13:16:16;8.80;99.90
6724;DHT22;3399;52.530;13.304;2024-02-14T13:18:42;8.80;99.90
6724;DHT22;3399;52.530;13.304;2024-02-14T13:21:08;8.70;99.90
6724;DHT22;3399;52.530;13.304;2024-02-14T13:23:35;8.80;99.90
6724;DHT22;3399;52.530;13.304;2024-02-14T13:26:00;8.90;99.90
6724;DHT22;3399;52.530;13.304;2024-02-14T13:28:29;8.90;99.90
6724;DHT22;3399;52.530;13.304;2024-02-14T13:30:56;9.00;99.90
6724;DHT22;3399;52.530;13.304;2024-02-14T13:33:23;8.90;99.90
6724;DHT22;3399;52.530;13.304;2024-02-14T13:35:49;8.90;99.90
6724;DHT22;3399;52.530;13.304;2024-02-14T13:38:15;8.90;99.90
6724;DHT22;3399;52.530;13.304;2024-02-14T13:40:42;8.90;99.90
6724;DHT22;3399;52.530;13.304;2024-02-14T13:43:08;8.90;99.90
6724;DHT22;3399;52.530;13.304;2024-02-14T13:45:45;8.90;99.90
6724;DHT22;3399;52.530;13.304;2024-02-14T13:48:13;9.00;99.90
6724;DHT22;3399;52.530;13.304;2024-02-14T13:50:40;8.80;99.90
6724;DHT22;3399;52.530;13.304;2024-02-14T13:53:07;8.90;99.90
6724;DHT22;3399;52.530;13.304;2024-02-14T13:55:33;8.90;99.90
6724;DHT22;3399;52.530;13.304;2024-02-14T13:57:58;9.00;99.90
6724;DHT22;3399;52.530;13.304;2024-02-14T14:00:24;8.90;99.90
6724;DHT22;3399;52.530;13.304;2024-02-14T14:02:50;9.00;99.90
6724;DHT22;3399;52.530;13.304;2024-02-14T14:05:15;9.10;99.90
6724;DHT22;3399;52.530;13.304;2024-02-14T14:07:41;9.00;99.90
6724;DHT22;3399;52.530;13.304;2024-02-14T14:10:08;9.00;99.90
6724;DHT22;3399;52.530;13.304;2024-02-14T14:12:37;9.10;99.90
6724;DHT22;3399;52.530;13.304;2024-02-14T14:15:04;9.00;99.90
6724;DHT22;3399;52.530;13.304;2024-02-14T14:17:31;9.00;99.90
6724;DHT22;3399;52.530;13.304;2024-02-14T14:19:57;9.10;99.90
6724;DHT22;3399;52.530;13.304;2024-02-14T14:22:22;9.00;99.90
6724;DHT22;3399;52.530;13.304;2024-02-14T14:24:48;8.90;99.90
6724;DHT22;3399;52.530;13.304;2024-02-14T14:27:13;9.00;99.90
6724;DHT22;3399;52.530;13.304;2024-02-14T14:29:41;9.00;99.90
6724;DHT22;3399;52.530;13.304;2024-02-14T14:32:07;9.10;99.90
6724;DHT22;3399;52.530;13.304;2024-02-14T14:34:33;9.00;99.90
6724;DHT22;3399;52.530;13.304;2024-02-14T14:36:59;9.10;99.90
6724;DHT22;3399;52.530;13.304;2024-02-14T14:39:24;9.20;99.90
6724;DHT22;3399;52.530;13.304;2024-02-14T14:41:50;9.20;99.90
6724;DHT22;3399;52.530;13.304;2024-02-14T14:44:17;9.20;99.90
6724;DHT22;3399;52.530;13.304;2024-02-14T14:46:43;9.30;99.90
6724;DHT22;3399;52.530;13.304;2024-02-14T14:49:09;9.30;99.90
6724;DHT22;3399;52.530;13.304;2024-02-14T14:51:35;9.40;99.90
6724;DHT22;3399;52.530;13.304;2024-02-14T14:54:01;9.40;99.90
6724;DHT22;3399;52.530;13.304;2024-02-14T14:56:26;9.40;99.90
6724;DHT22;3399;52.530;13.304;2024-02-14T14:58:52;9.40;99.90
6724;DHT22;3399;52.530;13.304;2024-02-14T15:01:19;9.50;99.90
6724;DHT22;3399;52.530;13.304;2024-02-14T15:03:44;9.50;99.90
6724;DHT22;3399;52.530;13.304;2024-02-14T15:06:10;9.50;99.90
6724;DHT22;3399;52.530;13.304;2024-02-14T15:08:37;9.60;99.90
6724;DHT22;3399;52.530;13.304;2024-02-14T15:11:02;9.50;99.90
6724;DHT22;3399;52.530;13.304;2024-02-14T15:13:30;9.60;99.90
6724;DHT22;3399;52.530;13.304;2024-02-14T15:15:57;9.70;99.90
6724;DHT22;3399;52.530;13.304;2024-02-14T15:18:24;9.70;99.90
6724;DHT22;3399;52.530;13.304;2024-02-14T15:20:50;9.80;99.90
6724;DHT22;3399;52.530;13.304;2024-02-14T15:23:15;9.80;99.90
6724;DHT22;3399;52.530;13.304;2024-02-14T15:25:41;9.80;99.90
6724;DHT22;3399;52.530;13.304;2024-02-14T15:28:08;9.80;99.90
6724;DHT22;3399;52.530;13.304;2024-02-14T15:30:39;9.80;99.90
6724;DHT22;3399;52.530;13.304;2024-02-14T15:33:23;9.80;99.90
6724;DHT22;3399;52.530;13.304;2024-02-14T15:35:50;9.80;99.90
6724;DHT22;3399;52.530;13.304;2024-02-14T15:38:17;9.80;99.90
6724;DHT22;3399;52.530;13.304;2024-02-14T15:40:46;9.80;99.90
6724;DHT22;3399;52.530;13.304;2024-02-14T15:43:12;9.90;99.90
6724;DHT22;3399;52.530;13.304;2024-02-14T15:45:38;9.80;99.90
6724;DHT22;3399;52.530;13.304;2024-02-14T15:48:04;9.90;99.90
6724;DHT22;3399;52.530;13.304;2024-02-14T15:50:30;9.90;99.90
6724;DHT22;3399;52.530;13.304;2024-02-14T15:52:57;9.90;99.90
6724;DHT22;3399;52.530;13.304;2024-02-14T15:55:23;10.00;99.90
6724;DHT22;3399;52.530;13.304;2024-02-14T15:57:48;10.00;99.90
6724;DHT22;3399;52.530;13.304;2024-02-14T16:00:14;10.00;99.90